Time;durP1;ratioP1;P1;durP2;ratioP2;P2;SDS_P1;SDS_P2;PMS_P1;PMS_P2;Temp;Humidity;BMP_temperature;BMP_pressure;BME280_temperature;BME280_humidity;BME280_pressure;Samples;Min_cycle;Max_cycle;Signal;HPM_P1;HPM_P2
2022/06/08 00:00:58;;;;;;;0.45;0.40;;;;;;;26.03;36.09;98916.38;5050053;28;20033;-69
2022/06/08 00:03:27;;;;;;;0.30;0.30;;;;;;;26.02;36.04;98917.59;5052245;28;20041;-70
2022/06/08 00:05:53;;;;;;;0.35;0.28;;;;;;;26.01;35.70;98919.63;5053042;28;20421;-69
2022/06/08 00:08:19;;;;;;;0.45;0.30;;;;;;;26.01;35.96;98914.00;5063422;28;20060;-69
2022/06/08 00:10:44;;;;;;;0.22;0.20;;;;;;;26.02;36.07;98904.38;5034605;28;20094;-69
2022/06/08 00:13:10;;;;;;;0.45;0.30;;;;;;;26.01;35.82;98908.41;5045358;28;20402;-70
2022/06/08 00:15:35;;;;;;;0.30;0.28;;;;;;;26.00;35.93;98900.41;5057561;28;20044;-69
2022/06/08 00:18:01;;;;;;;0.20;0.20;;;;;;;26.00;35.59;98911.59;5055439;28;20044;-69
2022/06/08 00:20:27;;;;;;;0.20;0.20;;;;;;;26.00;35.52;98906.00;5055514;28;20397;-71
2022/06/08 00:22:53;;;;;;;0.25;0.22;;;;;;;26.00;35.64;98900.41;5063564;28;20847;-70
2022/06/08 00:25:20;;;;;;;0.20;0.20;;;;;;;25.96;35.99;98900.47;5039965;28;20103;-70
2022/06/08 00:27:45;;;;;;;0.38;0.30;;;;;;;25.98;35.80;98897.22;5058265;28;20044;-70
2022/06/08 00:30:11;;;;;;;0.20;0.20;;;;;;;25.98;35.67;98894.44;5059959;28;20107;-70
2022/06/08 00:32:37;;;;;;;0.70;0.50;;;;;;;25.97;35.65;98895.66;5062392;28;20428;-70
2022/06/08 00:35:04;;;;;;;0.38;0.30;;;;;;;25.95;36.03;98895.28;5054834;28;20068;-70
2022/06/08 00:37:29;;;;;;;0.38;0.30;;;;;;;25.96;35.75;98891.28;5062310;28;20087;-70
2022/06/08 00:39:54;;;;;;;0.57;0.43;;;;;;;25.93;35.99;98889.28;5038500;28;20037;-70
2022/06/08 00:42:21;;;;;;;0.73;0.30;;;;;;;25.93;35.88;98881.72;5061071;28;20563;-70
2022/06/08 00:44:55;;;;;;;0.60;0.30;;;;;;;25.93;35.93;98892.09;5054946;28;20122;-70
2022/06/08 00:47:34;;;;;;;0.28;0.28;;;;;;;25.91;35.71;98886.13;5053248;28;20048;-70
2022/06/08 00:50:29;;;;;;;0.35;0.30;;;;;;;25.91;35.60;98889.72;5054088;28;20099;-70
2022/06/08 00:52:55;;;;;;;0.43;0.30;;;;;;;25.92;35.86;98890.50;5018421;28;20029;-71
2022/06/08 00:55:25;;;;;;;0.40;0.30;;;;;;;25.89;35.66;98885.75;5065269;28;20040;-70
2022/06/08 00:57:58;;;;;;;0.52;0.40;;;;;;;25.88;35.87;98878.59;5057976;28;20037;-70
2022/06/08 01:00:28;;;;;;;0.22;0.20;;;;;;;25.88;36.13;98884.19;5060207;28;20071;-70
2022/06/08 01:02:54;;;;;;;0.35;0.30;;;;;;;25.88;35.81;98896.19;5051675;28;20518;-69
2022/06/08 01:05:35;;;;;;;0.30;0.28;;;;;;;25.88;35.63;98893.38;5054010;28;20119;-70
2022/06/08 01:08:28;;;;;;;0.30;0.30;;;;;;;25.88;35.99;98901.00;5060931;28;20080;-70
2022/06/08 01:10:58;;;;;;;0.28;0.28;;;;;;;25.87;35.95;98889.00;5057232;28;20040;-70
2022/06/08 01:13:28;;;;;;;0.30;0.30;;;;;;;25.88;35.71;98892.59;5069642;28;20052;-70
2022/06/08 01:15:53;;;;;;;0.50;0.22;;;;;;;25.88;35.81;98893.38;5055273;28;20079;-70
2022/06/08 01:18:19;;;;;;;0.30;0.22;;;;;;;25.88;35.69;98884.97;5061872;28;20087;-70
2022/06/08 01:20:53;;;;;;;0.40;0.30;;;;;;;25.87;36.15;98885.41;5049739;28;20527;-70
2022/06/08 01:23:19;;;;;;;0.28;0.20;;;;;;;25.86;35.83;98892.19;5039010;28;20052;-69
2022/06/08 01:26:28;;;;;;;0.40;0.40;;;;;;;25.88;35.79;98895.41;5052867;28;20047;-75
2022/06/08 01:29:32;;;;;;;0.30;0.30;;;;;;;25.86;35.86;98889.41;5050215;28;20053;-75
2022/06/08 01:32:23;;;;;;;0.43;0.30;;;;;;;25.84;36.07;98883.44;5050486;28;20377;-75
2022/06/08 01:35:09;;;;;;;0.20;0.20;;;;;;;25.83;36.06;98885.44;5054347;28;20064;-75
2022/06/08 01:37:56;;;;;;;0.28;0.22;;;;;;;25.83;36.08;98882.63;5050842;28;20041;-74
2022/06/08 01:40:27;;;;;;;0.50;0.30;;;;;;;25.81;35.89;98881.47;5049916;28;20052;-74
2022/06/08 01:43:34;;;;;;;0.30;0.20;;;;;;;25.79;36.06;98873.50;5055449;28;20041;-74
2022/06/08 01:46:20;;;;;;;0.32;0.30;;;;;;;25.80;36.24;98866.69;5062948;28;20068;-70
2022/06/08 01:49:00;;;;;;;0.20;0.20;;;;;;;25.77;36.12;98862.69;5064244;28;20517;-70
2022/06/08 01:51:49;;;;;;;0.50;0.30;;;;;;;25.80;36.01;98866.69;5049317;28;20128;-70
2022/06/08 01:54:27;;;;;;;0.30;0.25;;;;;;;25.78;36.10;98858.69;5066625;28;20055;-70
2022/06/08 01:57:04;;;;;;;0.38;0.30;;;;;;;25.78;36.27;98864.28;5051630;28;20371;-70
2022/06/08 02:00:09;;;;;;;0.20;0.20;;;;;;;25.78;35.91;98864.28;5053648;28;20053;-70
2022/06/08 02:03:00;;;;;;;0.50;0.30;;;;;;;25.78;36.09;98869.09;5024678;28;20045;-70
2022/06/08 02:05:42;;;;;;;0.22;0.20;;;;;;;25.78;36.11;98863.50;5052813;28;20046;-69
2022/06/08 02:08:34;;;;;;;0.40;0.30;;;;;;;25.77;35.92;98861.91;5050950;28;20588;-70
2022/06/08 02:11:28;;;;;;;0.30;0.30;;;;;;;25.77;36.27;98871.09;5066116;28;20041;-71
2022/06/08 02:13:57;;;;;;;0.20;0.20;;;;;;;25.76;35.83;98866.72;5059974;28;20037;-71
2022/06/08 02:16:34;;;;;;;0.20;0.20;;;;;;;25.75;35.82;98872.75;5052742;28;20036;-71
2022/06/08 02:19:09;;;;;;;0.38;0.30;;;;;;;25.74;36.10;98876.78;5054207;28;20504;-71
2022/06/08 02:21:42;;;;;;;0.20;0.20;;;;;;;25.76;36.18;98868.72;5047261;28;20131;-71
2022/06/08 02:24:21;;;;;;;0.40;0.30;;;;;;;25.75;36.33;98867.16;5048453;28;20049;-70
2022/06/08 02:26:53;;;;;;;0.22;0.15;;;;;;;25.75;36.18;98869.94;5058601;28;20033;-70
2022/06/08 02:29:51;;;;;;;0.40;0.30;;;;;;;25.75;36.18;98856.72;5044868;28;20053;-70
2022/06/08 02:35:34;;;;;;;0.30;0.30;;;;;;;25.74;36.22;98849.56;5050358;28;20098;-70
2022/06/08 02:38:07;;;;;;;0.20;0.20;;;;;;;25.73;36.29;98856.38;5035917;28;20051;-69
2022/06/08 02:40:35;;;;;;;0.40;0.30;;;;;;;25.72;36.07;98852.00;5053961;28;20038;-74
2022/06/08 02:43:08;;;;;;;0.38;0.20;;;;;;;25.72;36.17;98851.19;5049498;28;20416;-74
2022/06/08 02:45:40;;;;;;;0.43;0.30;;;;;;;25.70;36.48;98848.75;5051517;28;20045;-73
2022/06/08 02:48:13;;;;;;;0.32;0.30;;;;;;;25.72;36.12;98845.59;5068442;28;20060;-74
2022/06/08 02:50:57;;;;;;;0.40;0.30;;;;;;;25.70;36.40;98843.16;5064263;28;20051;-74
2022/06/08 02:53:22;;;;;;;0.50;0.30;;;;;;;25.73;35.98;98847.19;5050536;28;20044;-75
2022/06/08 02:56:22;;;;;;;0.52;0.22;;;;;;;25.70;35.93;98848.75;5068330;28;20045;-69
2022/06/08 02:59:05;;;;;;;0.40;0.30;;;;;;;25.69;35.97;98835.97;5000320;28;20051;-70
2022/06/08 03:01:55;;;;;;;0.30;0.28;;;;;;;25.69;36.39;98841.56;4994873;28;20076;-70
2022/06/08 03:04:26;;;;;;;0.13;0.10;;;;;;;25.69;36.34;98855.59;5016470;28;20082;-74
2022/06/08 03:07:01;;;;;;;0.20;0.20;;;;;;;25.64;36.34;98850.44;4998345;28;20125;-74
2022/06/08 03:09:27;;;;;;;0.30;0.20;;;;;;;25.69;36.08;98849.97;5004431;28;20074;-74
2022/06/08 03:12:03;;;;;;;0.50;0.30;;;;;;;25.67;36.42;98848.81;4993775;28;20129;-74
2022/06/08 03:14:30;;;;;;;0.20;0.20;;;;;;;25.65;36.44;98852.06;5003640;28;20042;-74
2022/06/08 03:17:05;;;;;;;0.43;0.20;;;;;;;25.66;36.11;98848.03;5011287;28;20048;-74
2022/06/08 03:19:32;;;;;;;0.20;0.20;;;;;;;25.67;36.11;98835.63;4993283;28;20149;-74
2022/06/08 03:21:58;;;;;;;0.50;0.40;;;;;;;25.67;36.49;98837.63;4994095;28;20469;-74
2022/06/08 03:24:25;;;;;;;0.40;0.28;;;;;;;25.65;36.30;98831.66;4989599;28;20596;-74
2022/06/08 03:27:04;;;;;;;0.20;0.20;;;;;;;25.64;36.12;98839.25;4997304;28;20058;-74
2022/06/08 03:29:31;;;;;;;0.45;0.30;;;;;;;25.63;36.41;98834.84;4976373;28;20053;-73
2022/06/08 03:31:57;;;;;;;0.65;0.30;;;;;;;25.63;36.41;98839.66;5007723;28;20467;-74
2022/06/08 03:34:23;;;;;;;0.32;0.30;;;;;;;25.65;36.20;98840.84;5005435;28;20050;-74
2022/06/08 03:36:48;;;;;;;0.30;0.30;;;;;;;25.63;36.20;98828.47;5052513;28;20045;-74
2022/06/08 03:39:14;;;;;;;0.25;0.20;;;;;;;25.62;36.60;98830.47;5037901;28;20080;-74
2022/06/08 03:41:40;;;;;;;0.38;0.30;;;;;;;25.62;36.49;98824.88;5030564;28;20037;-74
2022/06/08 03:44:05;;;;;;;0.32;0.28;;;;;;;25.60;36.28;98813.31;5060423;28;20134;-74
2022/06/08 03:46:36;;;;;;;0.38;0.30;;;;;;;25.60;36.53;98821.72;5058538;28;20045;-75
2022/06/08 03:49:03;;;;;;;0.22;0.20;;;;;;;25.62;36.48;98818.47;5070228;28;20075;-75
2022/06/08 03:51:30;;;;;;;0.20;0.20;;;;;;;25.61;36.29;98833.72;5057169;28;20119;-75
2022/06/08 03:54:00;;;;;;;0.35;0.28;;;;;;;25.61;36.36;98823.28;5052650;28;20048;-74
2022/06/08 03:56:28;;;;;;;0.40;0.25;;;;;;;25.58;36.54;98834.56;5062531;28;20045;-74
2022/06/08 03:58:55;;;;;;;0.22;0.20;;;;;;;25.59;36.30;98833.34;5050930;28;20578;-74
2022/06/08 04:01:21;;;;;;;0.45;0.25;;;;;;;25.60;36.71;98844.13;5037101;28;20045;-74
2022/06/08 04:03:50;;;;;;;0.90;0.40;;;;;;;25.59;36.30;98848.13;5058979;28;20053;-73
2022/06/08 04:06:16;;;;;;;0.20;0.20;;;;;;;25.58;36.45;98842.97;5052215;28;20389;-75
2022/06/08 04:08:42;;;;;;;0.20;0.20;;;;;;;25.60;36.38;98849.72;5063246;28;20036;-74
2022/06/08 04:11:07;;;;;;;0.20;0.20;;;;;;;25.59;36.38;98848.13;5051642;28;20063;-74
2022/06/08 04:13:33;;;;;;;0.20;0.20;;;;;;;25.58;36.71;98843.75;5050498;28;20187;-74
2022/06/08 04:16:01;;;;;;;0.52;0.20;;;;;;;25.60;36.61;98844.13;5052667;28;20045;-74
2022/06/08 04:18:28;;;;;;;0.30;0.20;;;;;;;25.61;36.75;98837.28;5059234;28;20127;-74
2022/06/08 04:20:55;;;;;;;0.20;0.20;;;;;;;25.59;36.76;98825.72;5050706;28;20135;-74
2022/06/08 04:23:24;;;;;;;0.30;0.22;;;;;;;25.60;36.81;98832.91;5053749;28;20048;-70
2022/06/08 04:25:52;;;;;;;0.32;0.20;;;;;;;25.61;36.61;98839.31;5064001;28;20049;-70
2022/06/08 04:28:18;;;;;;;0.20;0.17;;;;;;;25.62;36.63;98840.88;5037289;28;20405;-69
2022/06/08 04:30:44;;;;;;;0.50;0.30;;;;;;;25.62;36.57;98821.28;5031376;28;20526;-70
2022/06/08 04:33:10;;;;;;;0.30;0.30;;;;;;;25.63;36.53;98815.25;5058053;28;20542;-70
2022/06/08 04:35:36;;;;;;;0.30;0.30;;;;;;;25.62;36.93;98810.88;5058153;28;20519;-69
2022/06/08 04:38:02;;;;;;;0.40;0.30;;;;;;;25.60;36.91;98810.50;5057787;28;20037;-69
2022/06/08 04:40:29;;;;;;;0.20;0.20;;;;;;;25.60;36.85;98816.13;5051330;28;20397;-70
2022/06/08 04:42:55;;;;;;;0.32;0.30;;;;;;;25.59;36.75;98803.31;5051897;28;20056;-70
2022/06/08 04:45:21;;;;;;;0.35;0.30;;;;;;;25.61;36.94;98811.31;5061828;28;20048;-70
2022/06/08 04:47:46;;;;;;;0.20;0.20;;;;;;;25.63;36.66;98804.06;5050932;28;20047;-70
2022/06/08 04:50:12;;;;;;;0.45;0.30;;;;;;;25.59;36.96;98803.31;5063335;28;20467;-75
2022/06/08 04:52:38;;;;;;;0.30;0.30;;;;;;;25.63;36.68;98806.84;5061595;28;20460;-75
2022/06/08 04:55:07;;;;;;;0.47;0.20;;;;;;;25.63;37.00;98811.66;5040118;28;20128;-75
2022/06/08 04:57:36;;;;;;;0.30;0.30;;;;;;;25.62;37.17;98808.06;5054779;28;20151;-74
2022/06/08 05:00:08;;;;;;;0.20;0.20;;;;;;;25.62;37.09;98808.06;5053277;28;20044;-74
2022/06/08 05:02:47;;;;;;;0.65;0.40;;;;;;;25.61;36.78;98806.50;5054458;28;20037;-75
2022/06/08 05:05:17;;;;;;;0.20;0.20;;;;;;;25.60;36.95;98801.31;5056894;28;20382;-73
2022/06/08 05:07:43;;;;;;;0.40;0.40;;;;;;;25.59;36.97;98803.31;5064461;28;20554;-74
2022/06/08 05:10:09;;;;;;;0.40;0.22;;;;;;;25.55;37.55;98802.56;5069619;28;20045;-74
2022/06/08 05:12:36;;;;;;;0.43;0.25;;;;;;;25.55;37.10;98801.78;5066130;28;20047;-74
2022/06/08 05:15:07;;;;;;;0.30;0.30;;;;;;;25.55;37.36;98796.19;5052998;28;20405;-74
2022/06/08 05:17:33;;;;;;;0.25;0.22;;;;;;;25.56;37.14;98794.97;5068047;28;20044;-75
2022/06/08 05:19:59;;;;;;;0.77;0.30;;;;;;;25.55;37.11;98796.19;5069325;28;20076;-71
2022/06/08 05:22:24;;;;;;;2.67;0.30;;;;;;;25.55;37.55;98802.56;5057091;28;20079;-70
2022/06/08 05:24:50;;;;;;;0.28;0.28;;;;;;;25.55;37.51;98799.78;5059459;28;20377;-71
2022/06/08 05:27:17;;;;;;;0.40;0.30;;;;;;;25.59;37.55;98794.94;5049508;28;20049;-70
2022/06/08 05:29:43;;;;;;;0.32;0.28;;;;;;;25.60;37.65;98798.53;5062966;28;20044;-69
2022/06/08 05:32:09;;;;;;;0.38;0.35;;;;;;;25.61;37.26;98794.50;5069168;28;20044;-69
2022/06/08 05:34:34;;;;;;;0.68;0.50;;;;;;;25.59;37.83;98780.13;5051531;28;20041;-69
2022/06/08 05:37:00;;;;;;;0.47;0.30;;;;;;;25.67;37.64;98790.81;5061715;28;20349;-69
2022/06/08 05:39:25;;;;;;;0.40;0.38;;;;;;;25.68;37.83;98797.19;5061264;28;20037;-70
2022/06/08 05:41:50;;;;;;;1.38;0.40;;;;;;;25.67;37.67;98802.00;5061071;28;20052;-69
2022/06/08 05:44:19;;;;;;;0.77;0.40;;;;;;;25.64;37.92;98788.03;5049427;28;20049;-70
2022/06/08 05:46:44;;;;;;;1.48;0.40;;;;;;;25.63;37.65;98792.84;5049291;28;20060;-70
2022/06/08 05:49:10;;;;;;;1.20;0.30;;;;;;;25.65;37.68;98789.66;5061132;28;20416;-70
2022/06/08 05:51:35;;;;;;;2.72;0.50;;;;;;;25.65;38.05;98790.44;5065508;28;20052;-70
2022/06/08 05:54:01;;;;;;;0.60;0.30;;;;;;;25.62;37.89;98785.66;5057811;28;20399;-70
2022/06/08 05:56:26;;;;;;;0.90;0.50;;;;;;;25.63;37.85;98781.66;5050766;28;20041;-70
2022/06/08 05:58:52;;;;;;;1.00;0.40;;;;;;;25.64;38.01;98788.03;5051922;28;20037;-70
2022/06/08 06:01:17;;;;;;;1.40;0.30;;;;;;;25.64;38.09;98785.22;5056336;28;20456;-70
2022/06/08 06:03:43;;;;;;;0.52;0.30;;;;;;;25.72;37.82;98775.56;5053630;28;20036;-69
2022/06/08 06:06:08;;;;;;;0.40;0.30;;;;;;;25.71;38.00;98771.91;5058111;28;20045;-70
2022/06/08 06:08:34;;;;;;;0.30;0.30;;;;;;;25.74;37.99;98771.13;5047954;28;20592;-73
2022/06/08 06:10:59;;;;;;;2.55;0.43;;;;;;;25.75;38.29;98772.69;5037679;28;20030;-75
2022/06/08 06:13:25;;;;;;;0.40;0.25;;;;;;;25.75;37.91;98783.09;5051776;28;20079;-74
2022/06/08 06:15:51;;;;;;;1.30;0.40;;;;;;;25.73;38.15;98774.34;5052525;28;20037;-74
2022/06/08 06:18:16;;;;;;;0.47;0.30;;;;;;;25.79;37.92;98784.66;5048841;28;20036;-74
2022/06/08 06:20:42;;;;;;;0.65;0.40;;;;;;;25.80;37.95;98774.22;5058198;28;20041;-74
2022/06/08 06:23:07;;;;;;;1.60;0.40;;;;;;;25.82;38.03;98777.41;5063251;28;20120;-76
2022/06/08 06:25:33;;;;;;;0.82;0.47;;;;;;;25.82;37.94;98782.22;5054300;28;20394;-74
2022/06/08 06:27:58;;;;;;;0.52;0.30;;;;;;;25.83;38.31;98784.56;5056833;28;20522;-74
2022/06/08 06:30:24;;;;;;;0.47;0.30;;;;;;;25.84;38.15;98772.16;5068779;28;20033;-73
2022/06/08 06:32:49;;;;;;;0.45;0.40;;;;;;;25.87;37.81;98778.94;5051303;28;20085;-75
2022/06/08 06:35:23;;;;;;;0.22;0.20;;;;;;;25.84;38.28;98774.94;5057985;28;20412;-74
2022/06/08 06:37:49;;;;;;;0.20;0.20;;;;;;;25.82;38.02;98777.41;5057192;28;20041;-75
2022/06/08 06:40:14;;;;;;;1.30;0.50;;;;;;;25.84;37.99;98779.75;5051747;28;20047;-75
2022/06/08 06:42:40;;;;;;;0.70;0.40;;;;;;;25.83;37.98;98775.38;5055325;28;20036;-75
2022/06/08 06:45:07;;;;;;;0.47;0.30;;;;;;;25.84;37.97;98774.16;5057768;28;20037;-70
2022/06/08 06:47:32;;;;;;;2.67;0.70;;;;;;;25.97;37.24;98769.53;5059057;28;20037;-70
2022/06/08 06:49:58;;;;;;;1.95;0.70;;;;;;;25.90;37.48;98762.03;5063752;28;20675;-70
2022/06/08 06:52:24;;;;;;;4.40;0.73;;;;;;;25.91;37.18;98762.84;5057875;28;20037;-71
2022/06/08 06:54:49;;;;;;;5.00;0.82;;;;;;;25.97;36.49;98767.53;5060105;28;20068;-71
2022/06/08 06:57:15;;;;;;;2.97;0.80;;;;;;;25.84;36.83;98769.34;5062022;28;20513;-71
2022/06/08 06:59:41;;;;;;;3.15;0.80;;;;;;;25.76;36.81;98763.06;5060282;28;20468;-70
2022/06/08 07:02:18;;;;;;;5.30;1.73;;;;;;;25.69;37.20;98760.34;5056706;28;20041;-77
2022/06/08 07:04:45;;;;;;;20.63;11.32;;;;;;;25.67;37.64;98759.19;5054420;28;20067;-70
2022/06/08 07:07:10;;;;;;;11.35;6.25;;;;;;;25.69;37.37;98762.34;5056412;28;20045;-72
2022/06/08 07:09:37;;;;;;;8.15;4.10;;;;;;;25.73;37.31;98766.72;5055940;28;20150;-72
2022/06/08 07:12:03;;;;;;;10.10;2.60;;;;;;;25.68;37.01;98755.97;5052069;28;20052;-71
2022/06/08 07:14:29;;;;;;;5.03;1.83;;;;;;;25.65;36.99;98751.22;5059545;28;20063;-65
2022/06/08 07:16:54;;;;;;;3.88;1.40;;;;;;;25.62;37.41;98749.25;5060340;28;20046;-66
2022/06/08 07:19:21;;;;;;;3.42;1.52;;;;;;;25.68;37.30;98749.56;5059719;28;20045;-64
2022/06/08 07:21:47;;;;;;;6.72;1.60;;;;;;;25.64;37.58;98749.63;5058426;28;20043;-64
2022/06/08 07:24:18;;;;;;;3.55;1.40;;;;;;;25.55;37.86;98757.75;5052880;28;20421;-65
2022/06/08 07:26:43;;;;;;;3.55;0.90;;;;;;;25.57;37.51;98754.53;5059366;28;20569;-71
2022/06/08 07:29:09;;;;;;;5.10;1.13;;;;;;;25.54;37.75;98739.38;5061255;28;20496;-72
2022/06/08 07:31:34;;;;;;;4.40;1.15;;;;;;;25.54;37.70;98750.59;5043137;28;20044;-71
2022/06/08 07:34:01;;;;;;;3.78;0.90;;;;;;;25.56;37.91;98748.16;5058615;28;20408;-64
2022/06/08 07:36:26;;;;;;;8.63;1.00;;;;;;;25.58;37.90;98739.34;5059396;28;20136;-65
2022/06/08 07:38:52;;;;;;;5.22;1.10;;;;;;;25.60;38.01;98754.50;5058622;28;20167;-64
2022/06/08 07:41:18;;;;;;;4.45;1.15;;;;;;;25.58;38.30;98758.94;5064893;28;20398;-66
2022/06/08 07:43:43;;;;;;;3.33;0.98;;;;;;;25.58;38.12;98745.75;5057417;28;20132;-65
2022/06/08 07:46:10;;;;;;;2.80;0.93;;;;;;;25.64;38.01;98743.22;5065983;28;20044;-65
2022/06/08 07:51:19;;;;;;;3.50;1.25;;;;;;;25.58;38.28;98731.72;5062088;28;20080;-64
2022/06/08 07:53:45;;;;;;;2.75;0.90;;;;;;;25.56;38.26;98731.34;5062565;28;20047;-66
2022/06/08 07:56:10;;;;;;;5.63;1.15;;;;;;;25.51;38.14;98721.44;5059354;28;20475;-65
2022/06/08 07:58:36;;;;;;;6.80;1.10;;;;;;;25.57;38.37;98706.94;5062966;28;20588;-65
2022/06/08 08:01:02;;;;;;;4.00;0.98;;;;;;;25.63;38.35;98703.22;5055787;28;20048;-65
2022/06/08 08:03:28;;;;;;;2.03;0.80;;;;;;;25.61;38.37;98699.28;5041715;28;20045;-64
2022/06/08 08:05:54;;;;;;;6.15;1.10;;;;;;;25.56;38.49;98711.75;5059148;28;20532;-65
2022/06/08 08:08:20;;;;;;;3.80;1.15;;;;;;;25.52;38.68;98703.41;5058736;28;20036;-65
2022/06/08 08:10:46;;;;;;;4.05;1.00;;;;;;;25.56;38.49;98705.34;5059200;28;20045;-64
2022/06/08 08:13:12;;;;;;;2.80;1.02;;;;;;;25.56;38.30;98702.53;5060107;28;20037;-64
2022/06/08 08:15:38;;;;;;;4.13;1.02;;;;;;;25.59;37.99;98693.31;5066952;28;20526;-64
2022/06/08 08:18:04;;;;;;;2.25;0.95;;;;;;;25.59;37.92;98702.50;5065117;28;20052;-65
2022/06/08 08:20:31;;;;;;;4.32;1.00;;;;;;;25.56;37.99;98689.34;5063834;28;20037;-67
2022/06/08 08:22:57;;;;;;;4.22;1.00;;;;;;;25.55;39.12;98698.97;5060573;28;20036;-76
2022/06/08 08:25:22;;;;;;;6.70;1.08;;;;;;;25.58;38.72;98700.94;5038003;28;20106;-64
2022/06/08 08:27:49;;;;;;;3.38;0.90;;;;;;;25.69;38.49;98697.94;5056831;28;20072;-71
2022/06/08 08:30:17;;;;;;;2.63;0.90;;;;;;;25.68;38.28;98699.94;5050811;28;20041;-71
2022/06/08 08:32:42;;;;;;;6.88;4.55;;;;;;;25.66;38.76;98701.59;5053415;28;20033;-71
2022/06/08 08:35:08;;;;;;;12.18;7.60;;;;;;;25.59;38.77;98702.50;5055754;28;20041;-78
2022/06/08 08:37:34;;;;;;;8.90;4.82;;;;;;;25.53;38.93;98705.00;5050880;28;20041;-70
2022/06/08 08:39:59;;;;;;;9.05;3.90;;;;;;;25.61;38.65;98705.66;5053872;28;20052;-70
2022/06/08 08:42:28;;;;;;;9.10;2.63;;;;;;;25.64;38.37;98712.41;5054137;28;20040;-70
2022/06/08 08:45:06;;;;;;;5.40;2.00;;;;;;;25.71;38.40;98715.09;5047130;28;20045;-71
2022/06/08 08:47:34;;;;;;;7.25;1.42;;;;;;;25.65;38.63;98716.81;5054569;28;20066;-67
2022/06/08 08:50:08;;;;;;;3.20;1.00;;;;;;;25.62;39.04;98723.25;5055188;28;20047;-66
2022/06/08 08:52:41;;;;;;;4.07;0.93;;;;;;;25.60;38.77;98715.28;5060354;28;20044;-67
2022/06/08 08:55:31;;;;;;;2.72;1.08;;;;;;;25.60;38.76;98717.28;5059917;28;20123;-66
2022/06/08 08:58:15;;;;;;;4.57;1.05;;;;;;;25.65;39.09;98712.00;5028996;28;20055;-67
2022/06/08 09:00:55;;;;;;;4.35;1.27;;;;;;;25.73;39.08;98718.31;5035042;28;20040;-65
2022/06/08 09:03:20;;;;;;;5.53;1.00;;;;;;;25.73;39.41;98721.13;5050359;28;20033;-66
2022/06/08 09:05:49;;;;;;;4.00;0.95;;;;;;;25.68;39.48;98732.78;5047489;28;20059;-63
2022/06/08 09:08:17;;;;;;;3.17;1.00;;;;;;;25.71;39.94;98738.28;5054073;28;20049;-64
2022/06/08 09:10:43;;;;;;;2.90;1.23;;;;;;;25.63;40.23;98733.25;5051203;28;20409;-63
2022/06/08 09:13:20;;;;;;;5.25;1.17;;;;;;;25.59;40.17;98738.91;5034574;28;20060;-63
2022/06/08 09:15:52;;;;;;;3.22;1.05;;;;;;;25.60;40.57;98748.09;5059161;28;20063;-63
2022/06/08 09:18:36;;;;;;;3.25;0.98;;;;;;;25.62;40.76;98751.28;5054837;28;20091;-64
2022/06/08 09:21:26;;;;;;;2.05;0.90;;;;;;;25.73;40.84;98755.53;5054755;28;20853;-64
2022/06/08 09:23:55;;;;;;;6.15;0.90;;;;;;;25.82;40.30;98765.41;5051680;28;20040;-66
2022/06/08 09:26:23;;;;;;;4.22;0.93;;;;;;;25.92;40.46;98770.81;5059316;28;20044;-66
2022/06/08 09:29:08;;;;;;;4.22;0.80;;;;;;;25.91;40.16;98763.63;5055143;28;20049;-71
2022/06/08 09:31:35;;;;;;;4.22;0.77;;;;;;;25.92;40.16;98758.81;5038810;28;20526;-70
2022/06/08 09:34:14;;;;;;;2.75;0.80;;;;;;;25.95;40.41;98760.78;5033955;28;20063;-69
2022/06/08 09:36:40;;;;;;;1.60;0.65;;;;;;;25.88;40.18;98756.09;5040935;28;20569;-72
2022/06/08 09:39:08;;;;;;;3.65;1.10;;;;;;;25.90;40.84;98761.25;5051276;28;20143;-64
2022/06/08 09:41:39;;;;;;;3.15;0.70;;;;;;;25.93;40.97;98761.22;5057759;28;20049;-68
2022/06/08 09:44:15;;;;;;;2.90;0.70;;;;;;;26.00;40.80;98768.69;5056114;28;20126;-66
2022/06/08 09:53:10;;;;;;;6.85;1.90;;;;;;;26.13;40.58;98782.88;5050431;28;20786;-67
2022/06/08 09:56:01;;;;;;;5.57;1.80;;;;;;;26.11;40.84;98794.53;5057049;28;20049;-67
2022/06/08 09:58:38;;;;;;;7.28;1.50;;;;;;;26.13;40.50;98792.09;5055311;28;20303;-73
2022/06/08 10:01:18;;;;;;;3.13;1.27;;;;;;;26.10;40.35;98781.75;5061216;28;20460;-74
2022/06/08 10:04:01;;;;;;;4.07;1.30;;;;;;;26.18;40.12;98783.19;5038889;28;20044;-75
2022/06/08 10:06:53;;;;;;;2.83;1.10;;;;;;;26.42;39.80;98803.63;5053813;28;20045;-74
2022/06/08 10:09:30;;;;;;;5.05;1.17;;;;;;;26.68;39.51;98810.38;5053360;28;20060;-74
2022/06/08 10:12:09;;;;;;;3.08;1.10;;;;;;;26.76;39.31;98814.63;5038004;28;20099;-73
2022/06/08 10:14:53;;;;;;;4.63;0.93;;;;;;;26.77;39.25;98815.41;5060525;28;20464;-74
2022/06/08 10:17:30;;;;;;;2.75;0.80;;;;;;;26.81;38.89;98816.16;5052356;28;20478;-68
2022/06/08 10:20:20;;;;;;;1.08;0.60;;;;;;;26.89;38.95;98815.56;5053262;28;20293;-68
2022/06/08 10:22:54;;;;;;;9.38;0.90;;;;;;;26.85;39.26;98830.88;5053994;28;20123;-69
2022/06/08 10:25:34;;;;;;;3.78;0.65;;;;;;;26.93;38.95;98826.72;5055670;28;20044;-71
2022/06/08 10:28:12;;;;;;;3.05;0.80;;;;;;;26.97;39.09;98824.66;5057420;28;20067;-71
2022/06/08 10:30:54;;;;;;;2.60;0.80;;;;;;;27.04;39.18;98827.34;5061514;28;20463;-71
2022/06/08 10:33:26;;;;;;;3.05;0.82;;;;;;;27.08;38.71;98832.91;5055949;28;20143;-69
2022/06/08 10:35:55;;;;;;;1.48;0.80;;;;;;;27.17;38.82;98832.31;5059614;28;20400;-70
2022/06/08 10:38:29;;;;;;;1.65;0.50;;;;;;;27.19;38.75;98841.09;5056208;28;20048;-70
2022/06/08 10:41:04;;;;;;;1.30;0.50;;;;;;;27.12;39.05;98847.63;5062870;28;20049;-69
2022/06/08 10:43:32;;;;;;;1.40;0.40;;;;;;;27.19;39.12;98864.34;5060503;28;20056;-69
2022/06/08 10:46:01;;;;;;;0.63;0.50;;;;;;;27.18;39.13;98861.97;5060363;28;20091;-70
2022/06/08 10:48:56;;;;;;;1.77;0.50;;;;;;;27.18;39.02;98853.56;5038535;28;20041;-70
2022/06/08 10:51:30;;;;;;;1.45;0.50;;;;;;;27.10;39.46;98855.72;5035280;28;20493;-68
2022/06/08 10:56:41;;;;;;;1.27;0.60;;;;;;;27.07;39.75;98873.41;5060003;28;20086;-69
2022/06/08 10:59:07;;;;;;;1.95;0.40;;;;;;;27.00;39.71;98871.50;5057700;28;20056;-69
2022/06/08 11:01:37;;;;;;;2.50;0.50;;;;;;;27.03;39.82;98875.47;5037874;28;20048;-69
2022/06/08 11:04:06;;;;;;;1.05;0.40;;;;;;;26.88;40.44;98867.31;5059861;28;20095;-69
2022/06/08 11:06:51;;;;;;;0.73;0.40;;;;;;;26.79;40.84;98867.09;5059021;28;20601;-69
2022/06/08 11:09:32;;;;;;;1.55;0.32;;;;;;;26.84;41.18;98860.19;5051669;28;20040;-69
2022/06/08 11:12:01;;;;;;;1.05;0.40;;;;;;;26.85;41.16;98853.34;5053182;28;20126;-68
2022/06/08 11:14:51;;;;;;;1.25;0.30;;;;;;;26.85;41.48;98853.34;5055196;28;20301;-70
2022/06/08 11:17:27;;;;;;;1.00;0.32;;;;;;;26.78;41.48;98859.88;5055203;28;20531;-70
2022/06/08 11:19:58;;;;;;;1.42;0.35;;;;;;;26.67;41.63;98850.88;5058552;28;20086;-70
2022/06/08 11:22:29;;;;;;;0.65;0.30;;;;;;;26.69;41.87;98861.66;5058386;28;20090;-68
2022/06/08 11:24:58;;;;;;;1.95;0.55;;;;;;;26.70;41.79;98866.84;5057373;28;20054;-69
2022/06/08 11:27:38;;;;;;;1.80;0.57;;;;;;;26.71;41.75;98860.00;5059293;28;20123;-71
2022/06/08 11:30:23;;;;;;;1.20;0.43;;;;;;;26.75;42.00;98866.34;5059370;28;20053;-69
2022/06/08 11:33:16;;;;;;;2.22;1.00;;;;;;;26.77;41.85;98866.72;5057724;28;20051;-70
2022/06/08 11:36:11;;;;;;;5.13;0.80;;;;;;;26.92;41.65;98866.44;5047439;28;20131;-69
2022/06/08 11:38:55;;;;;;;6.18;1.35;;;;;;;26.94;42.15;98870.44;5037826;28;20037;-72
2022/06/08 11:41:20;;;;;;;6.60;1.08;;;;;;;26.99;42.07;98869.91;5055789;28;20048;-72
2022/06/08 11:43:47;;;;;;;8.95;1.08;;;;;;;27.01;41.87;98861.09;5059171;28;20040;-72
2022/06/08 11:46:39;;;;;;;4.10;1.20;;;;;;;26.86;42.63;98858.53;5056454;28;20349;-72
2022/06/08 11:49:25;;;;;;;8.07;1.10;;;;;;;26.76;42.47;98862.31;5053909;28;20587;-72
2022/06/08 11:51:50;;;;;;;2.17;0.70;;;;;;;26.78;42.41;98865.50;5056370;28;20513;-73
2022/06/08 11:54:29;;;;;;;2.22;0.90;;;;;;;26.83;42.77;98859.38;5053612;28;20083;-72
2022/06/08 11:57:13;;;;;;;3.33;0.75;;;;;;;27.00;42.23;98857.44;5053049;28;20033;-70
2022/06/08 11:59:43;;;;;;;1.17;0.63;;;;;;;27.04;42.04;98851.78;5052502;28;20072;-66
2022/06/08 12:02:22;;;;;;;3.22;0.70;;;;;;;27.13;42.08;98855.63;5057043;28;20564;-66
2022/06/08 12:04:52;;;;;;;2.90;0.77;;;;;;;27.08;42.46;98838.50;5051435;28;20052;-65
2022/06/08 12:07:39;;;;;;;2.15;0.88;;;;;;;27.23;42.16;98845.41;5054072;28;20639;-66
2022/06/08 12:10:06;;;;;;;2.25;0.60;;;;;;;27.23;42.12;98842.63;5049161;28;20412;-66